Wetterdaten: aktuell Mittwoch, 18.09.2019 21:50
Datum Zeit Temp. I. Temp. A. Feuchte I. Feuchte A. Luftdruck Regen Wind Richtung Richtung Sonnenschein ET UV Solar Taupunkt Windchill Windben Empfang
18.09.2019 21:50 19,9 C 10,6 C 55 % 54 % 1023,8 hPa 0,0 l/m 4,7 km/h NO 34 0 min 0,050 mm 0,0 UV-I 0 W/m 1,7 C 10,6 C 8,0 km/h 100 %
18.09.2019 20:50 19,9 C 11,1 C 55 % 50 % 1023,4 hPa 0,0 l/m 5,1 km/h N-NO 31 0 min 0,051 mm 0,0 UV-I 0 W/m 1,1 C 11,1 C 8,0 km/h 100 %
18.09.2019 19:50 20,0 C 11,6 C 55 % 48 % 1022,6 hPa 0,0 l/m 6,9 km/h NO 39 0 min 0,076 mm 0,0 UV-I 0 W/m 1,0 C 11,3 C 12,9 km/h 99 %
18.09.2019 18:50 20,1 C 12,8 C 55 % 44 % 1022,0 hPa 0,0 l/m 5,9 km/h N-NO 24 45 min 0,178 mm 0,0 UV-I 14 W/m 0,9 C 12,8 C 11,3 km/h 100 %
18.09.2019 17:50 20,1 C 14,4 C 55 % 39 % 1021,8 hPa 0,0 l/m 6,6 km/h N-NO 23 60 min 0,280 mm 0,0 UV-I 179 W/m 0,6 C 14,3 C 12,9 km/h 100 %
18.09.2019 16:50 20,1 C 14,5 C 55 % 43 % 1021,8 hPa 0,0 l/m 5,4 km/h NW 325 60 min 0,355 mm 0,6 UV-I 383 W/m 2,1 C 14,5 C 11,3 km/h 100 %
18.09.2019 15:50 20,1 C 14,2 C 55 % 45 % 1021,9 hPa 0,0 l/m 8,9 km/h N-NW 340 60 min 0,381 mm 1,7 UV-I 552 W/m 2,4 C 12,8 C 14,5 km/h 100 %
18.09.2019 14:50 20,2 C 13,7 C 55 % 47 % 1022,2 hPa 0,0 l/m 12,4 km/h N-NW 348 60 min 0,407 mm 2,9 UV-I 668 W/m 2,6 C 10,6 C 20,9 km/h 100 %
18.09.2019 13:50 20,2 C 13,2 C 55 % 48 % 1022,5 hPa 0,0 l/m 7,8 km/h N 360 60 min 0,381 mm 3,7 UV-I 744 W/m 2,4 C 12,3 C 16,1 km/h 100 %
18.09.2019 12:50 20,3 C 12,4 C 55 % 52 % 1022,8 hPa 0,0 l/m 8,5 km/h N-NO 13 60 min 0,355 mm 4,0 UV-I 754 W/m 2,8 C 11,1 C 14,5 km/h 100 %
18.09.2019 11:50 20,4 C 11,2 C 55 % 56 % 1022,8 hPa 0,0 l/m 9,3 km/h N 5 60 min 0,280 mm 3,1 UV-I 724 W/m 2,8 C 9,3 C 25,7 km/h 100 %
18.09.2019 10:50 20,4 C 10,0 C 55 % 62 % 1022,7 hPa 0,0 l/m 9,1 km/h NO 34 60 min 0,228 mm 2,8 UV-I 504 W/m 3,1 C 8,1 C 24,1 km/h 100 %
18.09.2019 09:50 20,4 C 9,2 C 55 % 67 % 1022,5 hPa 0,0 l/m 11,8 km/h NW 319 60 min 0,153 mm 1,7 UV-I 496 W/m 3,4 C 5,7 C 25,7 km/h 99 %
18.09.2019 08:50 20,2 C 8,4 C 56 % 73 % 1021,6 hPa 0,0 l/m 12,3 km/h O-NO 57 60 min 0,076 mm 0,8 UV-I 327 W/m 3,8 C 4,5 C 22,5 km/h 100 %
18.09.2019 08:00 20,2 C 8,2 C 56 % 76 % 1021,0 hPa 0,0 l/m 15,8 km/h N-NO 12 25 min 0,076 mm 0,0 UV-I 163 W/m 4,2 C 2,6 C 29,0 km/h 100 %
18.09.2019 07:00 20,3 C 8,2 C 57 % 77 % 1020,3 hPa 0,0 l/m 8,9 km/h N-NO 15 10 min 0,025 mm 0,0 UV-I 25 W/m 4,4 C 6,3 C 16,1 km/h 98 %
18.09.2019 06:00 20,4 C 8,3 C 57 % 74 % 1019,3 hPa 0,0 l/m 18,3 km/h N-NW 346 0 min 0,051 mm 0,0 UV-I 0 W/m 3,9 C 1,7 C 32,2 km/h 100 %
18.09.2019 05:00 20,5 C 9,1 C 57 % 69 % 1018,4 hPa 0,0 l/m 14,1 km/h N-NW 348 0 min 0,051 mm 0,0 UV-I 0 W/m 3,7 C 4,4 C 30,6 km/h 100 %
18.09.2019 04:00 20,6 C 10,6 C 58 % 73 % 1017,6 hPa 0,0 l/m 14,0 km/h N-NO 15 0 min 0,051 mm 0,0 UV-I 0 W/m 6,0 C 6,3 C 25,7 km/h 100 %
18.09.2019 03:00 20,7 C 11,4 C 58 % 76 % 1016,8 hPa 0,0 l/m 13,7 km/h N 5 0 min 0,050 mm 0,0 UV-I 0 W/m 7,3 C 7,4 C 27,4 km/h 100 %
18.09.2019 02:00 20,8 C 12,3 C 58 % 81 % 1016,4 hPa 0,0 l/m 15,4 km/h N-NW 338 0 min 0,051 mm 0,0 UV-I 0 W/m 9,1 C 7,8 C 27,4 km/h 100 %
18.09.2019 01:00 20,8 C 13,0 C 58 % 76 % 1016,1 hPa 0,0 l/m 13,0 km/h N 360 0 min 0,051 mm 0,0 UV-I 0 W/m 8,9 C 9,5 C 33,8 km/h 100 %
18.09.2019 00:00 20,9 C 12,9 C 58 % 81 % 1015,5 hPa 0,0 l/m 11,8 km/h NW 306 0 min 0,000 mm 0,0 UV-I 0 W/m 9,7 C 9,9 C 24,1 km/h 100 %
_ Min-Zeit 20:10 07:05 09:25 17:25 00:00 - 15:00 - - - - - - 18:20 09:05 21:20 07:25
Minimum _ 19,9 C 8,1 C 55 % 39 % 1015,5 hPa - 3,3 km/h - - - - - - 0,4 C 0,7 C 4,8 km/h 96 %
_ Max-Zeit 00:00 16:20 00:00 00:00 21:50 00:00 09:05 - - 06:50 14:00 12:40 13:00 00:00 16:40 03:45 00:00
Maximum _ 20,9 C 14,6 C 58 % 81 % 1023,8 hPa 0,0 l/m 21,5 km/h
N-NW
- - 5 min 0,407 mm 4,1 UV-I 795 W/m 9,7 C 14,6 C 46,7 km/h
N
100 %
Durchschnitt _ 20,3 C 11,4 C 56 % 61 % 1020,7 hPa #0,0 l/m 10,6 km/h N-NO - #11:10 h #3,581 mm 2,4 UV-I 439 W/m 3,7 C 8,8 C 21,6 km/h 100 %